createdAt,value
2023-02-27T00:00:15.312Z,87.79
2023-02-27T00:01:19.446Z,87.41
2023-02-27T00:02:21.728Z,86.66
2023-02-27T00:03:25.670Z,86.35
2023-02-27T00:04:28.335Z,86.29
2023-02-27T00:05:30.648Z,85.45
2023-02-27T00:06:33.024Z,85.30
2023-02-27T00:07:35.504Z,85.54
2023-02-27T00:08:39.669Z,85.70
2023-02-27T00:09:42.368Z,85.67
2023-02-27T00:10:44.818Z,86.14
2023-02-27T00:11:46.958Z,85.82
2023-02-27T00:12:49.502Z,85.66
2023-02-27T00:13:52.152Z,85.33
2023-02-27T00:14:55.063Z,85.15
2023-02-27T00:15:58.636Z,85.10
2023-02-27T00:17:02.253Z,85.26
2023-02-27T00:18:05.328Z,84.67
2023-02-27T00:19:10.641Z,84.42
2023-02-27T00:20:16.203Z,84.45
2023-02-27T00:21:19.153Z,84.96
2023-02-27T00:22:21.935Z,84.42
2023-02-27T00:23:24.290Z,84.19
2023-02-27T00:24:26.667Z,84.09
2023-02-27T00:25:30.391Z,83.24
2023-02-27T00:26:33.298Z,82.59
2023-02-27T00:27:37.053Z,82.94
2023-02-27T00:28:39.674Z,83.04
2023-02-27T00:29:42.166Z,83.20
2023-02-27T00:30:44.727Z,83.03
2023-02-27T00:31:47.134Z,83.24
2023-02-27T00:32:49.757Z,82.92
2023-02-27T00:33:52.687Z,83.50
2023-02-27T00:34:55.444Z,83.66
2023-02-27T00:35:59.902Z,83.82
2023-02-27T00:37:03.034Z,83.58
2023-02-27T00:38:06.053Z,83.35
2023-02-27T00:39:08.933Z,82.89
2023-02-27T00:40:13.126Z,82.68
2023-02-27T00:41:15.503Z,82.31
2023-02-27T00:42:18.371Z,82.41
2023-02-27T00:43:22.951Z,82.39
2023-02-27T00:44:27.952Z,82.75
2023-02-27T00:45:30.519Z,82.69
2023-02-27T00:46:33.305Z,82.86
2023-02-27T00:47:35.962Z,82.77
2023-02-27T00:48:38.944Z,82.50
2023-02-27T00:49:44.092Z,82.46
2023-02-27T00:50:48.483Z,82.42
2023-02-27T00:51:51.563Z,82.16
2023-02-27T00:52:55.094Z,81.78
2023-02-27T00:53:57.272Z,81.25
2023-02-27T00:55:00.436Z,81.35
2023-02-27T00:56:03.542Z,81.51
2023-02-27T00:57:06.361Z,81.24
2023-02-27T00:58:09.896Z,81.57
2023-02-27T00:59:13.064Z,81.73
2023-02-27T01:00:16.751Z,81.90
2023-02-27T01:01:21.822Z,81.69
2023-02-27T01:02:24.874Z,81.38
2023-02-27T01:03:27.433Z,81.53
2023-02-27T01:04:29.892Z,81.28
2023-02-27T01:05:32.241Z,81.71
2023-02-27T01:06:35.140Z,81.70
2023-02-27T01:07:37.627Z,81.32
2023-02-27T01:08:40.157Z,81.40
2023-02-27T01:09:42.626Z,80.88
2023-02-27T01:10:45.088Z,80.94
2023-02-27T01:11:47.336Z,81.12
2023-02-27T01:12:50.766Z,81.28
2023-02-27T01:13:53.411Z,80.97
2023-02-27T01:14:55.877Z,81.10
2023-02-27T01:15:58.851Z,81.31
2023-02-27T01:17:02.020Z,81.27
2023-02-27T01:18:04.405Z,82.11
2023-02-27T01:19:06.626Z,81.65
2023-02-27T01:20:14.128Z,81.29
2023-02-27T01:21:17.006Z,81.63
2023-02-27T01:22:20.473Z,81.85
2023-02-27T01:23:24.962Z,81.42
2023-02-27T01:24:27.472Z,80.96
2023-02-27T01:25:30.281Z,81.30
2023-02-27T01:26:32.997Z,82.00
2023-02-27T01:27:36.533Z,81.74
2023-02-27T01:28:41.089Z,82.14
2023-02-27T01:29:43.836Z,81.90
2023-02-27T01:30:47.769Z,81.54
2023-02-27T01:31:50.789Z,81.08
2023-02-27T01:32:56.037Z,80.78
2023-02-27T01:33:58.731Z,81.70
2023-02-27T01:35:02.104Z,82.27
2023-02-27T01:36:05.441Z,82.23
2023-02-27T01:37:07.938Z,82.03
2023-02-27T01:38:10.582Z,82.27
2023-02-27T01:39:12.921Z,83.52
2023-02-27T01:40:15.841Z,83.95
2023-02-27T01:41:18.149Z,82.71
2023-02-27T01:42:23.817Z,83.95
2023-02-27T01:43:26.783Z,83.23
2023-02-27T01:44:31.060Z,82.20
2023-02-27T01:45:35.951Z,81.32
2023-02-27T01:46:38.884Z,80.90
2023-02-27T01:47:45.019Z,81.54
2023-02-27T01:48:47.414Z,82.03
2023-02-27T01:49:49.874Z,82.48
2023-02-27T01:51:01.717Z,81.94
2023-02-27T01:52:11.115Z,81.91
2023-02-27T01:53:14.339Z,82.30
2023-02-27T01:54:20.427Z,82.25
2023-02-27T01:55:26.776Z,82.70
2023-02-27T01:56:32.721Z,82.83
2023-02-27T01:57:36.327Z,83.95
2023-02-27T01:58:39.930Z,83.13
2023-02-27T01:59:43.318Z,83.49
2023-02-27T02:00:46.937Z,83.24
2023-02-27T02:01:50.655Z,82.93
2023-02-27T02:02:58.765Z,82.08
2023-02-27T02:04:16.283Z,82.09
2023-02-27T02:05:20.806Z,82.57
2023-02-27T02:06:23.878Z,82.20
2023-02-27T02:07:28.215Z,82.14
2023-02-27T02:08:36.585Z,82.80
2023-02-27T02:09:45.572Z,82.79
2023-02-27T02:10:50.842Z,82.52
2023-02-27T02:11:54.526Z,82.97
2023-02-27T02:12:58.071Z,83.04
2023-02-27T02:14:06.606Z,83.28
2023-02-27T02:15:09.449Z,82.73
2023-02-27T02:16:43.505Z,82.65
2023-02-27T02:17:55.781Z,83.12
2023-02-27T02:19:27.334Z,83.26
2023-02-27T02:20:56.303Z,82.46
2023-02-27T02:22:31.333Z,83.13
2023-02-27T02:23:43.931Z,83.31
2023-02-27T02:24:52.886Z,83.44
2023-02-27T02:26:19.210Z,82.58
2023-02-27T02:27:29.255Z,83.66
2023-02-27T02:29:01.490Z,83.01
2023-02-27T02:30:13.595Z,83.48
2023-02-27T02:31:39.115Z,83.38
2023-02-27T02:33:01.950Z,83.69
2023-02-27T02:35:42.799Z,83.92
2023-02-27T02:36:55.507Z,83.52
2023-02-27T02:38:17.894Z,83.28
2023-02-27T02:39:43.756Z,82.82
2023-02-27T02:41:02.002Z,83.84
2023-02-27T02:42:20.428Z,83.14
2023-02-27T02:43:26.917Z,83.22
2023-02-27T02:44:41.853Z,83.23
2023-02-27T02:45:50.580Z,83.22
2023-02-27T02:47:32.223Z,82.39
2023-02-27T02:48:56.748Z,83.13
2023-02-27T02:50:13.013Z,82.29
2023-02-27T02:51:34.375Z,82.42
2023-02-27T02:52:51.004Z,82.18
2023-02-27T02:53:59.745Z,82.33
2023-02-27T02:55:21.935Z,81.49
2023-02-27T02:56:43.172Z,81.85
2023-02-27T02:57:54.850Z,82.08
2023-02-27T02:59:21.910Z,81.95
2023-02-27T03:00:34.602Z,81.98
2023-02-27T03:02:57.164Z,81.13
2023-02-27T03:04:09.045Z,81.75
2023-02-27T03:05:15.181Z,81.23
2023-02-27T03:06:24.158Z,81.91
2023-02-27T03:07:33.106Z,82.00
2023-02-27T03:08:39.353Z,81.58
2023-02-27T03:09:57.560Z,82.06
2023-02-27T03:11:03.294Z,82.67
2023-02-27T03:12:09.246Z,82.77
2023-02-27T03:13:15.290Z,83.49
2023-02-27T03:14:27.368Z,81.69
2023-02-27T03:15:33.270Z,81.30
2023-02-27T03:16:40.585Z,82.11
2023-02-27T03:17:49.395Z,82.53
2023-02-27T03:18:58.356Z,82.52
2023-02-27T03:20:04.195Z,82.31
2023-02-27T03:21:10.357Z,81.24
2023-02-27T03:22:19.152Z,81.27
2023-02-27T03:23:25.403Z,81.65
2023-02-27T03:24:31.224Z,82.14
2023-02-27T03:25:35.640Z,81.81
2023-02-27T03:26:42.113Z,81.76
2023-02-27T03:27:49.585Z,81.65
2023-02-27T03:28:55.527Z,81.36
2023-02-27T03:30:07.750Z,80.96
2023-02-27T03:31:17.089Z,80.67
2023-02-27T03:32:41.347Z,81.09
2023-02-27T03:33:47.865Z,81.03
2023-02-27T03:34:50.786Z,80.64
2023-02-27T03:36:13.473Z,80.86
2023-02-27T03:37:19.656Z,80.96
2023-02-27T03:38:37.735Z,80.89
2023-02-27T03:39:44.155Z,81.42
2023-02-27T03:40:59.597Z,81.33
2023-02-27T03:42:07.358Z,80.75
2023-02-27T03:43:22.115Z,79.35
2023-02-27T03:44:33.150Z,79.18
2023-02-27T03:46:00.641Z,78.84
2023-02-27T03:47:03.547Z,79.61
2023-02-27T03:48:08.501Z,80.62
2023-02-27T03:49:11.451Z,80.62
2023-02-27T03:50:15.900Z,80.64
2023-02-27T03:51:22.070Z,79.97
2023-02-27T03:52:26.908Z,80.00
2023-02-27T03:53:35.760Z,80.79
2023-02-27T03:54:42.466Z,81.03
2023-02-27T03:55:48.740Z,79.57
2023-02-27T03:56:57.349Z,79.57
2023-02-27T03:58:00.748Z,79.64
2023-02-27T03:59:03.882Z,78.71
2023-02-27T04:00:11.141Z,80.26
2023-02-27T04:01:17.513Z,80.11
2023-02-27T04:02:20.697Z,80.24
2023-02-27T04:03:23.330Z,80.35
2023-02-27T04:04:27.272Z,80.08
2023-02-27T04:05:48.034Z,79.65
2023-02-27T04:07:21.018Z,79.93
2023-02-27T04:08:35.991Z,80.47
2023-02-27T04:10:00.259Z,79.05
2023-02-27T04:11:15.059Z,78.72
2023-02-27T04:12:33.010Z,79.06
2023-02-27T04:14:02.928Z,79.11
2023-02-27T04:16:59.985Z,79.62
2023-02-27T04:18:07.010Z,80.11
2023-02-27T04:19:18.299Z,78.96
2023-02-27T04:20:24.537Z,79.02
2023-02-27T04:21:34.014Z,77.77
2023-02-27T04:22:40.842Z,77.89
2023-02-27T04:24:03.479Z,78.25
2023-02-27T04:25:21.676Z,78.85
2023-02-27T04:26:54.513Z,78.50
2023-02-27T04:28:18.644Z,78.20
2023-02-27T04:29:41.294Z,78.69
2023-02-27T04:31:08.029Z,78.19
2023-02-27T04:32:21.112Z,79.26
2023-02-27T04:33:48.520Z,79.28
2023-02-27T04:36:36.423Z,79.05
2023-02-27T04:38:03.616Z,79.54
2023-02-27T04:39:08.904Z,79.00
2023-02-27T04:40:14.984Z,79.14
2023-02-27T04:41:23.706Z,79.90
2023-02-27T04:42:29.775Z,79.53
2023-02-27T04:43:34.567Z,79.38
2023-02-27T04:44:39.694Z,79.18
2023-02-27T04:45:45.299Z,79.79
2023-02-27T04:46:49.428Z,80.23
2023-02-27T04:47:55.306Z,79.24
2023-02-27T04:49:17.912Z,79.19
2023-02-27T04:50:24.373Z,78.95
2023-02-27T04:51:33.239Z,78.71
2023-02-27T04:52:41.868Z,79.46
2023-02-27T04:53:56.847Z,78.09
2023-02-27T04:55:05.641Z,78.73
2023-02-27T04:56:13.174Z,78.83
2023-02-27T04:57:22.147Z,78.95
2023-02-27T04:59:47.709Z,77.84
2023-02-27T05:00:53.631Z,78.23
2023-02-27T05:02:15.331Z,79.38
2023-02-27T05:03:30.466Z,79.71
2023-02-27T05:04:36.398Z,79.77
2023-02-27T05:05:43.514Z,79.05
2023-02-27T05:06:47.864Z,79.15
2023-02-27T05:07:57.024Z,79.36
2023-02-27T05:09:18.447Z,79.20
2023-02-27T05:10:39.911Z,79.34
2023-02-27T05:11:51.587Z,78.50
2023-02-27T05:14:17.501Z,79.51
2023-02-27T05:15:36.664Z,78.81
2023-02-27T05:16:43.259Z,78.03
2023-02-27T05:17:49.204Z,77.94
2023-02-27T05:18:52.230Z,78.31
2023-02-27T05:19:56.006Z,77.79
2023-02-27T05:21:08.280Z,78.53
2023-02-27T05:22:43.063Z,78.19
2023-02-27T05:24:08.998Z,77.46
2023-02-27T05:26:47.765Z,77.62
2023-02-27T05:27:59.356Z,77.38
2023-02-27T05:29:32.882Z,77.06
2023-02-27T05:30:50.794Z,77.42
2023-02-27T05:32:09.864Z,78.78
2023-02-27T05:33:22.090Z,79.03
2023-02-27T05:34:34.032Z,78.53
2023-02-27T05:35:49.136Z,78.42
2023-02-27T05:36:56.151Z,78.18
2023-02-27T05:38:08.199Z,78.37
2023-02-27T05:39:12.279Z,78.93
2023-02-27T05:40:19.330Z,78.39
2023-02-27T05:41:32.437Z,77.97
2023-02-27T05:42:38.294Z,77.83
2023-02-27T05:43:53.758Z,78.66
2023-02-27T05:44:59.669Z,78.63
2023-02-27T05:46:08.730Z,78.22
2023-02-27T05:47:14.520Z,79.30
2023-02-27T05:48:29.636Z,79.53
2023-02-27T05:49:38.413Z,79.27
2023-02-27T05:50:44.474Z,78.40
2023-02-27T05:51:50.787Z,79.72
2023-02-27T05:52:55.790Z,79.58
2023-02-27T05:54:01.655Z,77.98
2023-02-27T05:55:07.537Z,78.03
2023-02-27T05:56:13.980Z,78.63
2023-02-27T05:57:20.027Z,78.52
2023-02-27T05:58:33.000Z,78.04
2023-02-27T05:59:43.104Z,77.69
2023-02-27T06:00:49.090Z,77.74
2023-02-27T06:01:51.483Z,77.28
2023-02-27T06:02:53.922Z,77.16
2023-02-27T06:03:57.262Z,77.38
2023-02-27T06:04:59.673Z,77.71
2023-02-27T06:06:17.713Z,76.60
2023-02-27T06:07:20.410Z,76.73
2023-02-27T06:08:23.964Z,77.18
2023-02-27T06:09:26.403Z,76.95
2023-02-27T06:10:31.121Z,76.74
2023-02-27T06:11:34.222Z,76.74
2023-02-27T06:12:37.436Z,76.70
2023-02-27T06:13:41.969Z,76.56
2023-02-27T06:14:44.264Z,76.66
2023-02-27T06:15:48.353Z,77.05
2023-02-27T06:16:50.981Z,76.51
2023-02-27T06:17:53.234Z,76.05
2023-02-27T06:18:55.425Z,75.33
2023-02-27T06:19:57.701Z,76.43
2023-02-27T06:21:00.887Z,77.46
2023-02-27T06:22:03.699Z,76.92
2023-02-27T06:23:06.393Z,77.03
2023-02-27T06:24:08.919Z,76.84
2023-02-27T06:25:11.929Z,77.23
2023-02-27T06:26:15.166Z,77.14
2023-02-27T06:27:17.805Z,77.26
2023-02-27T06:28:21.023Z,76.80
2023-02-27T06:29:23.709Z,77.30
2023-02-27T06:30:26.861Z,76.49
2023-02-27T06:31:29.284Z,76.86
2023-02-27T06:32:31.705Z,77.08
2023-02-27T06:33:34.904Z,76.67
2023-02-27T06:34:37.507Z,76.77
2023-02-27T06:35:40.561Z,76.81
2023-02-27T06:36:43.111Z,76.83
2023-02-27T06:37:45.496Z,76.83
2023-02-27T06:38:47.753Z,75.95
2023-02-27T06:39:50.498Z,76.36
2023-02-27T06:40:53.164Z,76.34
2023-02-27T06:41:55.569Z,76.14
2023-02-27T06:42:58.000Z,76.70
2023-02-27T06:44:00.273Z,77.46
2023-02-27T06:45:03.199Z,77.08
2023-02-27T06:46:05.972Z,77.85
2023-02-27T06:47:08.465Z,77.72
2023-02-27T06:48:12.054Z,76.60
2023-02-27T06:49:14.618Z,76.85
2023-02-27T06:50:18.109Z,77.46
2023-02-27T06:51:20.762Z,76.32
2023-02-27T06:52:23.380Z,77.50
2023-02-27T06:53:26.125Z,76.87
2023-02-27T06:54:28.786Z,76.44
2023-02-27T06:55:32.205Z,76.73
2023-02-27T06:56:34.718Z,76.22
2023-02-27T06:57:37.171Z,76.26
2023-02-27T06:58:39.570Z,76.35
2023-02-27T06:59:43.709Z,75.63
2023-02-27T07:00:48.564Z,75.84
2023-02-27T07:01:55.133Z,74.99
2023-02-27T07:03:01.906Z,75.77
2023-02-27T07:04:04.829Z,76.09
2023-02-27T07:05:09.354Z,75.71
2023-02-27T07:06:14.718Z,75.05
2023-02-27T07:07:35.029Z,75.37
2023-02-27T07:08:21.312Z,75.67
2023-02-27T07:09:23.972Z,76.05
2023-02-27T07:10:26.595Z,74.59
2023-02-27T07:11:29.409Z,74.64
2023-02-27T07:12:32.106Z,75.13
2023-02-27T07:13:34.667Z,74.90
2023-02-27T07:14:37.627Z,75.00
2023-02-27T07:15:39.939Z,73.59
2023-02-27T07:16:42.569Z,73.41
2023-02-27T07:17:44.900Z,73.37
2023-02-27T07:18:47.164Z,72.90
2023-02-27T07:19:49.424Z,72.54
2023-02-27T07:20:54.767Z,72.79
2023-02-27T07:21:57.144Z,73.27
2023-02-27T07:22:59.489Z,73.48
2023-02-27T07:24:03.784Z,72.65
2023-02-27T07:25:08.386Z,72.96
2023-02-27T07:26:11.823Z,73.70
2023-02-27T07:27:14.158Z,73.41
2023-02-27T07:28:18.283Z,74.63
2023-02-27T07:29:20.701Z,75.22
2023-02-27T07:30:23.588Z,75.63
2023-02-27T07:31:28.869Z,75.83
2023-02-27T07:32:31.096Z,75.83
2023-02-27T07:33:34.592Z,75.73
2023-02-27T07:34:36.912Z,75.38
2023-02-27T07:35:43.108Z,75.87
2023-02-27T07:36:46.153Z,76.21
2023-02-27T07:37:48.295Z,75.34
2023-02-27T07:38:51.568Z,74.05
2023-02-27T07:39:54.085Z,73.93
2023-02-27T07:40:58.593Z,73.56
2023-02-27T07:42:01.025Z,73.46
2023-02-27T07:43:03.172Z,73.46
2023-02-27T07:44:07.668Z,72.77
2023-02-27T07:45:10.894Z,73.48
2023-02-27T07:46:14.545Z,72.28
2023-02-27T07:47:17.294Z,71.11
2023-02-27T07:48:20.506Z,71.55
2023-02-27T07:49:23.464Z,72.54
2023-02-27T07:50:27.062Z,70.18
2023-02-27T07:51:29.603Z,70.78
2023-02-27T07:52:32.306Z,71.84
2023-02-27T07:53:34.432Z,71.56
2023-02-27T07:54:40.709Z,71.56
2023-02-27T07:55:42.988Z,71.10
2023-02-27T07:56:45.456Z,71.51
2023-02-27T07:57:48.470Z,71.18
2023-02-27T07:58:50.685Z,71.75
2023-02-27T07:59:53.042Z,71.99
2023-02-27T08:00:56.528Z,71.29
2023-02-27T08:01:58.817Z,70.66
2023-02-27T08:03:01.189Z,72.40
2023-02-27T08:04:03.810Z,71.34
2023-02-27T08:05:07.694Z,70.59
2023-02-27T08:06:10.666Z,71.64
2023-02-27T08:07:13.937Z,71.52
2023-02-27T08:08:16.503Z,70.84
2023-02-27T08:09:18.970Z,70.69
2023-02-27T08:10:21.326Z,70.13
2023-02-27T08:11:23.809Z,68.32
2023-02-27T08:12:26.151Z,68.61
2023-02-27T08:13:58.999Z,68.81
2023-02-27T08:14:33.037Z,70.07
2023-02-27T08:15:35.380Z,70.22
2023-02-27T08:16:39.436Z,68.38
2023-02-27T08:17:49.667Z,70.03
2023-02-27T08:18:52.420Z,69.51
2023-02-27T08:19:54.737Z,68.51
2023-02-27T08:20:57.559Z,68.77
2023-02-27T08:22:00.871Z,68.52
2023-02-27T08:23:03.241Z,69.68
2023-02-27T08:24:05.604Z,69.45
2023-02-27T08:25:11.590Z,69.38
2023-02-27T08:26:15.252Z,70.28
2023-02-27T08:27:17.961Z,69.89
2023-02-27T08:28:20.492Z,69.90
2023-02-27T08:29:23.618Z,69.90
2023-02-27T08:30:27.118Z,68.63
2023-02-27T08:31:34.518Z,70.69
2023-02-27T08:32:39.341Z,68.71
2023-02-27T08:33:41.646Z,71.04
2023-02-27T08:34:44.218Z,68.80
2023-02-27T08:35:46.564Z,69.46
2023-02-27T08:36:49.842Z,67.70
2023-02-27T08:37:52.057Z,67.43
2023-02-27T08:38:54.288Z,67.95
2023-02-27T08:39:56.591Z,68.01
2023-02-27T08:40:59.488Z,68.24
2023-02-27T08:42:02.263Z,67.52
2023-02-27T08:43:04.705Z,66.70
2023-02-27T08:44:07.020Z,66.76
2023-02-27T08:45:10.660Z,66.37
2023-02-27T08:46:13.473Z,65.93
2023-02-27T08:47:17.508Z,66.23
2023-02-27T08:48:20.166Z,67.29
2023-02-27T08:49:25.465Z,65.46
2023-02-27T08:50:28.107Z,65.50
2023-02-27T08:51:32.209Z,66.48
2023-02-27T08:52:34.602Z,66.48
2023-02-27T08:53:37.899Z,65.41
2023-02-27T08:54:40.544Z,66.84
2023-02-27T08:55:43.109Z,67.54
2023-02-27T08:56:47.378Z,67.62
2023-02-27T08:57:50.996Z,66.21
2023-02-27T08:58:54.958Z,65.90
2023-02-27T08:59:57.932Z,66.54
2023-02-27T09:01:01.694Z,66.66
2023-02-27T09:02:04.706Z,66.06
2023-02-27T09:03:07.840Z,65.84
2023-02-27T09:04:11.575Z,66.65
2023-02-27T09:05:14.007Z,65.62
2023-02-27T09:06:16.476Z,64.68
2023-02-27T09:07:20.398Z,64.48
2023-02-27T09:08:23.334Z,66.33
2023-02-27T09:09:27.131Z,67.19
2023-02-27T09:10:30.416Z,65.59
2023-02-27T09:11:32.744Z,68.60
2023-02-27T09:12:35.395Z,66.33
2023-02-27T09:13:39.005Z,66.73
2023-02-27T09:14:41.350Z,66.56
2023-02-27T09:15:45.627Z,67.58
2023-02-27T09:16:48.011Z,65.92
2023-02-27T09:17:51.069Z,66.71
2023-02-27T09:18:53.704Z,65.97
2023-02-27T09:19:57.511Z,66.33
2023-02-27T09:21:00.953Z,66.57
2023-02-27T09:22:03.528Z,66.89
2023-02-27T09:23:06.048Z,67.00
2023-02-27T09:24:19.295Z,65.76
2023-02-27T09:25:13.165Z,65.76
2023-02-27T09:26:17.308Z,66.57
2023-02-27T09:27:21.035Z,65.83
2023-02-27T09:28:23.733Z,65.53
2023-02-27T09:29:27.143Z,66.10
2023-02-27T09:30:30.842Z,65.40
2023-02-27T09:31:34.164Z,66.16
2023-02-27T09:32:37.889Z,65.91
2023-02-27T09:33:40.935Z,65.73
2023-02-27T09:34:44.004Z,65.46
2023-02-27T09:35:47.844Z,64.54
2023-02-27T09:36:51.102Z,64.91
2023-02-27T09:37:54.128Z,65.22
2023-02-27T09:38:59.514Z,65.64
2023-02-27T09:40:05.123Z,66.04
2023-02-27T09:41:09.572Z,66.31
2023-02-27T09:42:25.088Z,65.17
2023-02-27T09:43:46.521Z,64.36
2023-02-27T09:44:55.756Z,63.99
2023-02-27T09:46:00.792Z,64.35
2023-02-27T09:47:10.025Z,63.86
2023-02-27T09:48:31.084Z,64.41
2023-02-27T09:49:38.119Z,63.42
2023-02-27T09:50:45.536Z,63.78
2023-02-27T09:51:53.383Z,63.70
2023-02-27T09:52:57.230Z,64.93
2023-02-27T09:54:01.379Z,64.63
2023-02-27T09:55:13.725Z,65.61
2023-02-27T09:56:22.818Z,65.86
2023-02-27T09:57:31.677Z,65.11
2023-02-27T09:58:57.335Z,64.94
2023-02-27T10:00:04.300Z,63.75
2023-02-27T10:01:24.650Z,64.35
2023-02-27T10:02:46.679Z,65.25
2023-02-27T10:04:04.390Z,65.70
2023-02-27T10:05:16.907Z,65.46
2023-02-27T10:06:38.702Z,64.69
2023-02-27T10:07:53.846Z,64.85
2023-02-27T10:09:14.952Z,63.85
2023-02-27T10:10:36.789Z,65.04
2023-02-27T10:11:48.951Z,64.28
2023-02-27T10:13:14.855Z,64.53
2023-02-27T10:14:43.597Z,64.71
2023-02-27T10:15:49.317Z,65.92
2023-02-27T10:16:53.693Z,62.92
2023-02-27T10:18:25.397Z,63.61
2023-02-27T10:20:35.786Z,63.66
2023-02-27T10:21:41.722Z,63.54
2023-02-27T10:22:48.194Z,64.01
2023-02-27T10:24:23.108Z,64.92
2023-02-27T10:25:31.706Z,64.49
2023-02-27T10:26:34.018Z,65.22
2023-02-27T10:27:38.120Z,65.27
2023-02-27T10:28:40.861Z,65.73
2023-02-27T10:29:43.348Z,65.52
2023-02-27T10:30:49.112Z,65.06
2023-02-27T10:31:56.255Z,64.81
2023-02-27T10:33:11.564Z,64.85
2023-02-27T10:34:19.908Z,64.88
2023-02-27T10:35:34.851Z,65.97
2023-02-27T10:36:37.372Z,65.21
2023-02-27T10:37:45.411Z,65.41
2023-02-27T10:38:55.311Z,65.72
2023-02-27T10:40:01.258Z,65.05
2023-02-27T10:41:05.716Z,64.18
2023-02-27T10:42:11.601Z,64.50
2023-02-27T10:43:19.644Z,69.95
2023-02-27T10:44:23.950Z,66.47
2023-02-27T10:45:26.665Z,65.35
2023-02-27T10:46:31.940Z,64.69
2023-02-27T10:47:34.524Z,64.79
2023-02-27T10:48:36.897Z,64.40
2023-02-27T10:49:42.510Z,64.68
2023-02-27T10:50:50.084Z,64.51
2023-02-27T10:52:08.799Z,64.53
2023-02-27T10:53:24.528Z,63.87
2023-02-27T10:54:27.535Z,64.21
2023-02-27T10:55:38.641Z,63.94
2023-02-27T10:56:43.860Z,64.29
2023-02-27T10:57:47.464Z,63.21
2023-02-27T10:59:03.456Z,63.47
2023-02-27T11:00:11.154Z,63.90
2023-02-27T11:01:14.176Z,63.46
2023-02-27T11:02:36.773Z,63.92
2023-02-27T11:03:41.902Z,63.82
2023-02-27T11:04:53.328Z,62.77
2023-02-27T11:05:59.180Z,62.48
2023-02-27T11:07:05.250Z,65.00
2023-02-27T11:08:26.107Z,63.67
2023-02-27T11:09:32.651Z,62.93
2023-02-27T11:10:35.043Z,62.82
2023-02-27T11:11:39.846Z,62.12
2023-02-27T11:12:45.375Z,61.92
2023-02-27T11:13:47.785Z,63.45
2023-02-27T11:14:53.673Z,62.18
2023-02-27T11:16:08.766Z,62.21
2023-02-27T11:17:14.655Z,62.05
2023-02-27T11:18:27.580Z,64.88
2023-02-27T11:19:36.749Z,63.29
2023-02-27T11:20:41.818Z,62.63
2023-02-27T11:21:48.135Z,64.97
2023-02-27T11:22:55.298Z,62.90
2023-02-27T11:24:09.009Z,65.75
2023-02-27T11:25:24.309Z,63.01
2023-02-27T11:26:39.554Z,62.26
2023-02-27T11:27:42.309Z,61.63
2023-02-27T11:28:45.906Z,61.69
2023-02-27T11:30:07.081Z,61.58
2023-02-27T11:32:48.202Z,62.35
2023-02-27T11:33:56.381Z,61.89
2023-02-27T11:34:58.781Z,61.83
2023-02-27T11:36:02.567Z,61.48
2023-02-27T11:37:21.485Z,61.55
2023-02-27T11:38:27.705Z,61.79
2023-02-27T11:39:52.567Z,61.87
2023-02-27T11:40:59.081Z,61.83
2023-02-27T11:42:11.050Z,61.82
2023-02-27T11:43:26.683Z,62.07
2023-02-27T11:44:50.150Z,61.99
2023-02-27T11:46:04.973Z,62.37
2023-02-27T11:46:48.718Z,62.67
2023-02-27T11:47:57.113Z,62.49
2023-02-27T11:49:09.502Z,62.58
2023-02-27T11:50:41.504Z,62.71
2023-02-27T11:52:14.444Z,62.97
2023-02-27T11:53:29.874Z,63.53
2023-02-27T11:54:36.010Z,63.17
2023-02-27T11:55:38.482Z,62.82
2023-02-27T11:56:50.823Z,63.13
2023-02-27T11:57:57.688Z,63.03
2023-02-27T11:59:19.452Z,62.75
2023-02-27T12:00:40.488Z,63.43
2023-02-27T12:02:11.318Z,62.87
2023-02-27T12:03:26.706Z,62.74
2023-02-27T12:04:55.515Z,63.97
2023-02-27T12:06:01.464Z,64.43
2023-02-27T12:07:19.787Z,63.70
2023-02-27T12:08:31.977Z,63.91
2023-02-27T12:09:46.823Z,64.06
2023-02-27T12:11:12.412Z,63.66
2023-02-27T12:12:07.402Z,63.65
2023-02-27T12:13:25.657Z,63.87
2023-02-27T12:14:34.737Z,64.37
2023-02-27T12:15:47.029Z,64.90
2023-02-27T12:16:56.122Z,65.11
2023-02-27T12:18:14.263Z,65.12
2023-02-27T12:21:07.840Z,64.96
2023-02-27T12:22:26.978Z,64.56
2023-02-27T12:23:35.800Z,64.77
2023-02-27T12:24:54.140Z,64.46
2023-02-27T12:26:27.239Z,64.42
2023-02-27T12:27:43.769Z,64.67
2023-02-27T12:29:24.496Z,64.31
2023-02-27T12:30:34.197Z,64.37
2023-02-27T12:31:44.269Z,64.51
2023-02-27T12:34:29.463Z,64.27
2023-02-27T12:35:33.597Z,64.09
2023-02-27T12:36:41.519Z,64.32
2023-02-27T12:37:45.190Z,64.35
2023-02-27T12:38:48.981Z,64.07
2023-02-27T12:39:54.914Z,63.80
2023-02-27T12:41:12.997Z,63.73
2023-02-27T12:42:41.661Z,63.73
2023-02-27T12:44:14.849Z,64.07
2023-02-27T12:45:45.137Z,64.33
2023-02-27T12:47:13.555Z,64.17
2023-02-27T12:48:22.765Z,64.48
2023-02-27T12:49:46.509Z,64.61
2023-02-27T12:51:15.569Z,64.83
2023-02-27T12:52:50.185Z,64.09
2023-02-27T12:54:26.200Z,66.09
2023-02-27T12:55:35.005Z,66.07
2023-02-27T12:56:43.978Z,66.21
2023-02-27T12:58:05.538Z,65.97
2023-02-27T12:59:46.322Z,67.43
2023-02-27T13:00:52.869Z,65.48
2023-02-27T13:01:59.141Z,66.02
2023-02-27T13:03:23.426Z,65.23
2023-02-27T13:04:29.356Z,65.29
2023-02-27T13:05:35.334Z,65.14
2023-02-27T13:06:52.986Z,65.57
2023-02-27T13:08:08.137Z,65.06
2023-02-27T13:09:30.671Z,64.60
2023-02-27T13:10:38.011Z,66.73
2023-02-27T13:12:05.013Z,65.70
2023-02-27T13:13:30.684Z,65.64
2023-02-27T13:14:42.812Z,65.05
2023-02-27T13:17:24.978Z,64.94
2023-02-27T13:18:35.033Z,64.78
2023-02-27T13:19:53.298Z,65.44
2023-02-27T13:21:15.399Z,66.42
2023-02-27T13:22:24.277Z,64.94
2023-02-27T13:23:43.924Z,65.12
2023-02-27T13:24:51.352Z,65.39
2023-02-27T13:25:56.103Z,65.07
2023-02-27T13:27:24.932Z,65.27
2023-02-27T13:28:28.821Z,65.32
2023-02-27T13:29:37.751Z,65.55
2023-02-27T13:30:43.788Z,66.12
2023-02-27T13:31:59.692Z,66.38
2023-02-27T13:33:20.896Z,66.43
2023-02-27T13:34:42.365Z,66.73
2023-02-27T13:36:10.610Z,66.81
2023-02-27T13:37:13.052Z,66.25
2023-02-27T13:38:37.037Z,66.76
2023-02-27T13:39:50.686Z,66.97
2023-02-27T13:40:55.400Z,66.58
2023-02-27T13:41:59.356Z,66.39
2023-02-27T13:43:25.804Z,66.88
2023-02-27T13:44:38.048Z,66.77
2023-02-27T13:45:47.265Z,66.87
2023-02-27T13:46:51.200Z,66.92
2023-02-27T13:47:55.005Z,67.06
2023-02-27T13:49:28.162Z,66.94
2023-02-27T13:50:27.839Z,66.97
2023-02-27T13:51:43.447Z,67.26
2023-02-27T13:52:46.888Z,67.59
2023-02-27T13:54:02.362Z,67.92
2023-02-27T13:55:27.582Z,67.62
2023-02-27T13:56:40.297Z,67.59
2023-02-27T13:57:47.533Z,67.90
2023-02-27T13:59:03.667Z,67.65
2023-02-27T14:00:24.635Z,67.77
2023-02-27T14:01:32.345Z,67.74
2023-02-27T14:02:57.696Z,67.70
2023-02-27T14:03:59.539Z,67.48
2023-02-27T14:05:05.515Z,67.87
2023-02-27T14:06:11.293Z,67.56
2023-02-27T14:07:18.080Z,68.18
2023-02-27T14:08:23.784Z,67.98
2023-02-27T14:09:30.462Z,67.51
2023-02-27T14:10:36.548Z,67.01
2023-02-27T14:11:39.442Z,67.70
2023-02-27T14:12:46.208Z,67.25
2023-02-27T14:13:57.094Z,67.79
2023-02-27T14:15:01.424Z,67.88
2023-02-27T14:16:05.001Z,67.59
2023-02-27T14:17:10.650Z,67.63
2023-02-27T14:18:34.444Z,67.56
2023-02-27T14:19:44.240Z,67.33
2023-02-27T14:20:51.618Z,67.54
2023-02-27T14:22:12.412Z,68.28
2023-02-27T14:23:20.054Z,68.61
2023-02-27T14:24:29.316Z,68.38
2023-02-27T14:25:48.005Z,67.99
2023-02-27T14:26:53.150Z,68.20
2023-02-27T14:27:58.071Z,68.34
2023-02-27T14:29:03.142Z,68.57
2023-02-27T14:30:10.990Z,68.14
2023-02-27T14:31:26.765Z,68.26
2023-02-27T14:32:35.286Z,68.29
2023-02-27T14:33:45.564Z,68.04
2023-02-27T14:34:50.385Z,67.81
2023-02-27T14:36:05.766Z,68.31
2023-02-27T14:37:11.901Z,68.57
2023-02-27T14:38:18.013Z,68.64
2023-02-27T14:39:24.248Z,68.67
2023-02-27T14:40:30.652Z,68.49
2023-02-27T14:41:59.696Z,68.66
2023-02-27T14:43:14.636Z,68.88
2023-02-27T14:44:19.708Z,68.58
2023-02-27T14:45:25.009Z,68.54
2023-02-27T14:46:34.061Z,68.27
2023-02-27T14:47:39.415Z,68.46
2023-02-27T14:48:42.325Z,68.35
2023-02-27T14:49:47.412Z,68.46
2023-02-27T14:50:58.630Z,68.22
2023-02-27T14:52:25.797Z,68.32
2023-02-27T14:53:28.240Z,68.50
2023-02-27T14:54:30.479Z,68.64
2023-02-27T14:55:35.644Z,68.89
2023-02-27T14:56:39.679Z,68.84
2023-02-27T14:57:55.112Z,68.93
2023-02-27T14:59:04.210Z,69.11